Time;durP1;ratioP1;P1;durP2;ratioP2;P2;SDS_P1;SDS_P2;PMS_P1;PMS_P2;Temp;Humidity;BMP_temperature;BMP_pressure;BME280_temperature;BME280_humidity;BME280_pressure;Samples;Min_cycle;Max_cycle;Signal;HPM_P1;HPM_P2
2022/06/02 00:02:07;;;;;;;11.63;9.00;;;;;;;;;;5062695;28;20045;-74
2022/06/02 00:04:52;;;;;;;12.70;10.07;;;;;;;;;;5070842;28;20053;-74
2022/06/02 00:07:30;;;;;;;11.77;9.70;;;;;;;;;;5079294;28;20069;-73
2022/06/02 00:10:02;;;;;;;11.35;9.20;;;;;;;;;;5062684;28;20399;-74
2022/06/02 00:12:47;;;;;;;11.35;8.65;;;;;;;;;;5076421;28;20406;-74
2022/06/02 00:15:13;;;;;;;11.95;9.68;;;;;;;;;;5073884;28;20044;-73
2022/06/02 00:17:53;;;;;;;12.43;9.80;;;;;;;;;;5077370;28;20494;-73
2022/06/02 00:20:30;;;;;;;12.85;9.05;;;;;;;;;;5077657;28;20044;-73
2022/06/02 00:23:05;;;;;;;14.25;10.63;;;;;;;;;;5057986;28;20041;-73
2022/06/02 00:25:31;;;;;;;12.05;9.35;;;;;;;;;;5057751;28;20045;-73
2022/06/02 00:28:21;;;;;;;13.20;9.20;;;;;;;;;;5096411;28;20048;-74
2022/06/02 00:30:54;;;;;;;14.65;10.20;;;;;;;;;;5084963;28;20562;-74
2022/06/02 00:33:25;;;;;;;11.23;9.23;;;;;;;;;;5057312;28;20056;-74
2022/06/02 00:35:58;;;;;;;11.60;9.45;;;;;;;;;;5077872;28;20059;-74
2022/06/02 00:38:29;;;;;;;11.82;9.38;;;;;;;;;;5073921;28;20050;-73
2022/06/02 00:40:57;;;;;;;12.27;9.52;;;;;;;;;;5082076;28;20043;-73
2022/06/02 00:43:23;;;;;;;11.35;8.85;;;;;;;;;;5097739;28;20457;-73
2022/06/02 00:45:53;;;;;;;11.60;9.20;;;;;;;;;;5090984;28;20063;-74
2022/06/02 00:48:37;;;;;;;14.55;9.38;;;;;;;;;;5078977;28;20051;-74
2022/06/02 00:51:05;;;;;;;10.57;8.35;;;;;;;;;;5061429;28;20127;-73
2022/06/02 00:53:39;;;;;;;11.20;9.18;;;;;;;;;;5074761;28;21517;-73
2022/06/02 00:59:30;;;;;;;11.90;9.13;;;;;;;;;;5058299;28;20044;-73
2022/06/02 01:01:57;;;;;;;10.80;8.55;;;;;;;;;;5065019;28;20283;-74
2022/06/02 01:04:23;;;;;;;11.45;9.77;;;;;;;;;;5072056;28;20063;-74
2022/06/02 01:07:04;;;;;;;12.10;9.27;;;;;;;;;;5057082;28;20554;-73
2022/06/02 01:09:30;;;;;;;12.80;9.70;;;;;;;;;;5062820;28;20096;-74
2022/06/02 01:12:10;;;;;;;13.48;10.40;;;;;;;;;;5066500;28;20115;-74
2022/06/02 01:14:36;;;;;;;15.35;11.13;;;;;;;;;;5057026;28;20124;-74
2022/06/02 01:17:17;;;;;;;16.08;10.30;;;;;;;;;;5073652;28;20068;-73
2022/06/02 01:20:02;;;;;;;14.48;11.60;;;;;;;;;;5074845;28;20048;-73
2022/06/02 01:22:31;;;;;;;15.52;11.25;;;;;;;;;;5073042;28;20055;-74
2022/06/02 01:25:00;;;;;;;17.20;11.80;;;;;;;;;;5076597;28;20036;-74
2022/06/02 01:27:32;;;;;;;13.43;11.73;;;;;;;;;;5065510;28;20059;-74
2022/06/02 01:30:13;;;;;;;14.32;12.15;;;;;;;;;;5065156;28;20040;-74
2022/06/02 01:32:52;;;;;;;16.75;11.68;;;;;;;;;;5072631;28;20048;-74
2022/06/02 01:35:19;;;;;;;16.13;12.07;;;;;;;;;;5066696;28;20040;-74
2022/06/02 01:37:57;;;;;;;15.48;12.48;;;;;;;;;;5077886;28;20068;-74
2022/06/02 01:40:23;;;;;;;16.63;12.40;;;;;;;;;;5072921;28;20509;-74
2022/06/02 01:43:02;;;;;;;13.85;11.15;;;;;;;;;;5061861;28;20053;-73
2022/06/02 01:45:28;;;;;;;16.95;13.07;;;;;;;;;;5071199;28;20498;-73
2022/06/02 01:48:04;;;;;;;17.17;12.52;;;;;;;;;;5083682;28;20094;-73
2022/06/02 01:50:46;;;;;;;15.15;12.18;;;;;;;;;;5077503;28;20049;-74
2022/06/02 01:53:18;;;;;;;17.17;13.68;;;;;;;;;;5074884;28;20041;-74
2022/06/02 01:55:44;;;;;;;17.52;13.57;;;;;;;;;;5074598;28;20045;-74
2022/06/02 01:58:34;;;;;;;14.57;12.43;;;;;;;;;;5074706;28;20380;-74
2022/06/02 02:01:06;;;;;;;16.48;13.75;;;;;;;;;;5062571;28;20102;-73
2022/06/02 02:03:34;;;;;;;16.58;14.88;;;;;;;;;;5079179;28;20048;-74
2022/06/02 02:06:14;;;;;;;16.77;13.90;;;;;;;;;;5066353;28;20046;-74
2022/06/02 02:09:00;;;;;;;16.00;14.27;;;;;;;;;;5075437;28;20063;-74
2022/06/02 02:11:26;;;;;;;17.38;13.95;;;;;;;;;;5068424;28;20043;-74
2022/06/02 02:14:01;;;;;;;19.02;15.27;;;;;;;;;;5056648;28;20072;-74
2022/06/02 02:16:37;;;;;;;15.90;13.95;;;;;;;;;;5055853;28;20151;-74
2022/06/02 02:19:12;;;;;;;16.38;13.88;;;;;;;;;;5076214;28;20091;-74
2022/06/02 02:21:48;;;;;;;17.80;14.27;;;;;;;;;;5066657;28;20072;-74
2022/06/02 02:24:34;;;;;;;15.88;13.95;;;;;;;;;;5055164;28;20041;-74
2022/06/02 02:27:19;;;;;;;17.27;14.23;;;;;;;;;;5053969;28;20068;-74
2022/06/02 02:29:48;;;;;;;16.15;14.40;;;;;;;;;;5054320;28;20045;-73
2022/06/02 02:32:30;;;;;;;16.73;14.23;;;;;;;;;;5055498;28;20068;-73
2022/06/02 02:35:14;;;;;;;18.83;14.77;;;;;;;;;;5064827;28;20162;-73
2022/06/02 02:37:43;;;;;;;16.83;14.63;;;;;;;;;;5073467;28;20106;-73
2022/06/02 02:40:19;;;;;;;16.60;14.40;;;;;;;;;;5075687;28;20045;-73
2022/06/02 02:42:51;;;;;;;19.77;15.57;;;;;;;;;;5058234;28;20179;-74
2022/06/02 02:45:17;;;;;;;;;;;;;;;;;;5109220;28;20063;-73
2022/06/02 02:47:45;;;;;;;17.23;14.43;;;;;;;;;;5065219;28;19921;-73
2022/06/02 02:50:15;;;;;;;18.67;15.00;;;;;;;;;;5071619;28;20048;-73
2022/06/02 02:52:50;;;;;;;16.60;14.90;;;;;;;;;;5064659;28;20068;-73
2022/06/02 02:55:19;;;;;;;17.38;14.40;;;;;;;;;;5093788;28;20040;-73
2022/06/02 02:58:03;;;;;;;16.67;14.43;;;;;;;;;;5098775;28;20040;-73
2022/06/02 03:00:36;;;;;;;18.67;15.13;;;;;;;;;;5060736;28;20064;-74
2022/06/02 03:03:08;;;;;;;18.60;14.80;;;;;;;;;;5060297;28;20037;-74
2022/06/02 03:05:40;;;;;;;21.60;16.08;;;;;;;;;;5071342;28;20040;-73
2022/06/02 03:08:12;;;;;;;19.60;14.77;;;;;;;;;;5078574;28;20049;-73
2022/06/02 03:10:40;;;;;;;18.33;15.35;;;;;;;;;;5073963;28;20525;-73
2022/06/02 03:13:09;;;;;;;19.88;15.85;;;;;;;;;;5059149;28;20103;-74
2022/06/02 03:15:41;;;;;;;20.70;16.60;;;;;;;;;;5061200;28;20109;-73
2022/06/02 03:18:30;;;;;;;20.02;16.48;;;;;;;;;;5067820;28;20051;-74
2022/06/02 03:20:56;;;;;;;19.63;16.02;;;;;;;;;;5061622;28;20102;-74
2022/06/02 03:23:40;;;;;;;18.27;16.10;;;;;;;;;;5057629;28;20051;-74
2022/06/02 03:26:12;;;;;;;22.02;16.60;;;;;;;;;;5057447;28;20037;-74
2022/06/02 03:28:52;;;;;;;19.00;15.85;;;;;;;;;;5057771;28;20144;-74
2022/06/02 03:31:30;;;;;;;21.35;16.10;;;;;;;;;;5061356;28;20145;-74
2022/06/02 03:33:59;;;;;;;18.42;16.23;;;;;;;;;;5067402;28;20095;-74
2022/06/02 03:36:48;;;;;;;20.60;15.95;;;;;;;;;;5079935;28;20078;-74
2022/06/02 03:39:14;;;;;;;19.58;16.00;;;;;;;;;;5077962;28;20052;-74
2022/06/02 03:41:49;;;;;;;20.00;16.05;;;;;;;;;;5068201;28;20049;-74
2022/06/02 03:44:24;;;;;;;20.60;15.68;;;;;;;;;;5076142;28;20084;-74
2022/06/02 03:47:02;;;;;;;18.15;16.00;;;;;;;;;;5075020;28;20041;-74
2022/06/02 03:49:41;;;;;;;17.88;15.85;;;;;;;;;;5069248;28;20033;-74
2022/06/02 03:52:07;;;;;;;18.30;15.88;;;;;;;;;;5074566;28;20041;-74
2022/06/02 03:54:44;;;;;;;23.38;16.80;;;;;;;;;;5082911;28;20406;-74
2022/06/02 03:57:16;;;;;;;20.95;16.65;;;;;;;;;;5083592;28;20075;-74
2022/06/02 04:00:01;;;;;;;18.52;16.30;;;;;;;;;;5075483;28;20052;-74
2022/06/02 04:02:30;;;;;;;17.17;15.00;;;;;;;;;;5062940;28;20040;-73
2022/06/02 04:05:08;;;;;;;18.05;14.75;;;;;;;;;;5073251;28;20462;-73
2022/06/02 04:07:43;;;;;;;17.45;15.30;;;;;;;;;;5075869;28;20056;-73
2022/06/02 04:10:28;;;;;;;18.45;14.82;;;;;;;;;;5056158;28;20069;-73
2022/06/02 04:15:47;;;;;;;18.95;15.10;;;;;;;;;;5074039;28;20498;-73
2022/06/02 04:18:16;;;;;;;18.35;15.43;;;;;;;;;;5057619;28;20120;-74
2022/06/02 04:21:02;;;;;;;16.02;13.68;;;;;;;;;;5077200;28;20076;-74
2022/06/02 04:23:41;;;;;;;15.63;13.27;;;;;;;;;;5055926;28;20512;-74
2022/06/02 04:26:23;;;;;;;16.67;12.63;;;;;;;;;;5060728;28;20055;-74
2022/06/02 04:28:57;;;;;;;13.45;11.23;;;;;;;;;;5069589;28;20083;-74
2022/06/02 04:31:43;;;;;;;12.85;11.55;;;;;;;;;;5073531;28;20052;-73
2022/06/02 04:34:20;;;;;;;12.40;10.45;;;;;;;;;;5073552;28;20040;-74
2022/06/02 04:36:52;;;;;;;14.05;11.10;;;;;;;;;;5056286;28;20045;-73
2022/06/02 04:39:28;;;;;;;13.00;10.57;;;;;;;;;;5054403;28;20045;-74
2022/06/02 04:42:04;;;;;;;14.27;11.23;;;;;;;;;;5054557;28;20059;-74
2022/06/02 04:44:30;;;;;;;13.43;11.05;;;;;;;;;;5067159;28;20409;-74
2022/06/02 04:47:02;;;;;;;12.45;11.18;;;;;;;;;;5055654;28;20048;-74
2022/06/02 04:49:33;;;;;;;13.38;11.60;;;;;;;;;;5066210;28;20063;-74
2022/06/02 04:52:11;;;;;;;14.20;12.18;;;;;;;;;;5077181;28;20052;-74
2022/06/02 04:54:57;;;;;;;14.18;11.98;;;;;;;;;;5061354;28;20514;-74
2022/06/02 04:57:41;;;;;;;13.45;11.32;;;;;;;;;;5064939;28;20082;-74
2022/06/02 05:00:17;;;;;;;14.65;11.60;;;;;;;;;;5054555;28;20078;-74
2022/06/02 05:02:55;;;;;;;15.50;12.57;;;;;;;;;;5073274;28;20087;-73
2022/06/02 05:05:27;;;;;;;11.85;10.63;;;;;;;;;;5072314;28;20406;-74
2022/06/02 05:07:53;;;;;;;17.30;12.70;;;;;;;;;;5060908;28;20091;-74
2022/06/02 05:10:38;;;;;;;14.20;12.23;;;;;;;;;;5058423;28;20048;-74
2022/06/02 05:13:10;;;;;;;15.80;12.48;;;;;;;;;;5074982;28;20077;-74
2022/06/02 05:15:42;;;;;;;14.45;12.27;;;;;;;;;;5070275;28;20071;-73
2022/06/02 05:18:23;;;;;;;14.30;11.73;;;;;;;;;;5057750;28;20110;-74
2022/06/02 05:21:01;;;;;;;15.32;11.85;;;;;;;;;;5069396;28;20472;-74
2022/06/02 05:23:32;;;;;;;18.00;12.27;;;;;;;;;;5074805;28;20491;-74
2022/06/02 05:26:01;;;;;;;16.05;13.25;;;;;;;;;;5072059;28;20509;-74
2022/06/02 05:28:37;;;;;;;16.52;12.88;;;;;;;;;;5066358;28;20502;-74
2022/06/02 05:31:21;;;;;;;13.65;11.90;;;;;;;;;;5072391;28;20040;-73
2022/06/02 05:33:47;;;;;;;12.73;10.18;;;;;;;;;;5055331;28;20045;-74
2022/06/02 05:36:22;;;;;;;12.60;9.20;;;;;;;;;;5063531;28;20048;-73
2022/06/02 05:38:54;;;;;;;10.50;8.13;;;;;;;;;;5072509;28;20049;-74
2022/06/02 05:41:38;;;;;;;10.65;8.07;;;;;;;;;;5074422;28;20052;-74
2022/06/02 05:44:12;;;;;;;8.25;7.07;;;;;;;;;;5064999;28;20487;-74
2022/06/02 05:46:38;;;;;;;8.20;6.95;;;;;;;;;;5054455;28;20091;-74
2022/06/02 05:49:08;;;;;;;9.52;6.50;;;;;;;;;;5054832;28;20456;-74
2022/06/02 05:51:40;;;;;;;8.95;5.63;;;;;;;;;;5069929;28;20057;-74
2022/06/02 05:54:07;;;;;;;7.43;5.45;;;;;;;;;;5075267;28;20041;-74
2022/06/02 05:56:42;;;;;;;7.40;5.38;;;;;;;;;;5073483;28;20109;-74
2022/06/02 05:59:26;;;;;;;7.97;5.35;;;;;;;;;;5070900;28;20044;-74
2022/06/02 06:01:52;;;;;;;7.97;5.32;;;;;;;;;;5066445;28;20104;-74
2022/06/02 06:04:29;;;;;;;7.40;5.53;;;;;;;;;;5061256;28;20124;-72
2022/06/02 06:07:02;;;;;;;6.22;4.10;;;;;;;;;;5068102;28;20047;-73
2022/06/02 06:09:42;;;;;;;8.40;5.30;;;;;;;;;;5060224;28;20102;-73
2022/06/02 06:12:13;;;;;;;6.03;4.30;;;;;;;;;;5071724;28;20059;-73
2022/06/02 06:14:58;;;;;;;6.00;4.43;;;;;;;;;;5071616;28;20040;-73
2022/06/02 06:17:31;;;;;;;7.15;4.80;;;;;;;;;;5079501;28;20123;-74
2022/06/02 06:20:07;;;;;;;7.47;4.35;;;;;;;;;;5065211;28;20052;-73
2022/06/02 06:22:43;;;;;;;8.68;4.50;;;;;;;;;;5068225;28;20048;-73
2022/06/02 06:25:30;;;;;;;7.20;4.32;;;;;;;;;;5067869;28;20537;-73
2022/06/02 06:28:05;;;;;;;6.43;3.70;;;;;;;;;;5061600;28;20133;-74
2022/06/02 06:30:58;;;;;;;5.65;3.63;;;;;;;;;;5064524;28;20045;-74
2022/06/02 06:33:24;;;;;;;7.30;4.05;;;;;;;;;;5055978;28;20101;-74
2022/06/02 06:36:02;;;;;;;6.85;3.83;;;;;;;;;;5072452;28;20056;-74
2022/06/02 06:38:40;;;;;;;5.53;2.90;;;;;;;;;;5071877;28;20040;-74
2022/06/02 06:41:10;;;;;;;5.35;2.80;;;;;;;;;;5061356;28;20044;-74
2022/06/02 06:43:55;;;;;;;5.43;2.70;;;;;;;;;;5069912;28;20065;-74
2022/06/02 06:46:25;;;;;;;4.35;2.30;;;;;;;;;;5070763;28;20454;-74
2022/06/02 06:49:03;;;;;;;5.75;2.38;;;;;;;;;;5072609;28;20084;-74
2022/06/02 06:51:35;;;;;;;4.68;2.00;;;;;;;;;;5068620;28;20503;-74
2022/06/02 06:54:20;;;;;;;4.70;2.20;;;;;;;;;;5060172;28;20045;-74
2022/06/02 06:56:50;;;;;;;5.30;2.20;;;;;;;;;;5066539;28;20558;-74
2022/06/02 06:59:27;;;;;;;4.50;1.98;;;;;;;;;;5073179;28;20051;-73
2022/06/02 07:02:02;;;;;;;4.43;1.80;;;;;;;;;;5087571;28;20044;-74
2022/06/02 07:04:46;;;;;;;5.63;1.52;;;;;;;;;;5091671;28;20501;-73
2022/06/02 07:07:12;;;;;;;5.10;1.50;;;;;;;;;;5052977;28;20080;-74
2022/06/02 07:09:50;;;;;;;4.95;1.63;;;;;;;;;;5054554;28;20056;-74
2022/06/02 07:15:12;;;;;;;3.88;1.20;;;;;;;;;;5062705;28;20087;-74
2022/06/02 07:17:43;;;;;;;3.63;1.30;;;;;;;;;;5066836;28;20056;-74
2022/06/02 07:20:10;;;;;;;;;;;;;;;;;;5073198;28;20070;-74
2022/06/02 07:22:51;;;;;;;2.88;1.10;;;;;;;;;;5073164;28;19920;-74
2022/06/02 07:25:36;;;;;;;2.30;0.88;;;;;;;;;;5048502;28;20040;-73
2022/06/02 07:28:05;;;;;;;3.13;1.23;;;;;;;;;;5073276;28;20040;-71
2022/06/02 07:30:37;;;;;;;5.35;1.30;;;;;;;;;;5071101;28;20045;-71
2022/06/02 07:33:03;;;;;;;19.35;1.75;;;;;;;;;;5086561;28;20045;-72
2022/06/02 07:35:29;;;;;;;6.35;1.23;;;;;;;;;;5055198;28;20064;-73
2022/06/02 07:38:14;;;;;;;8.23;1.50;;;;;;;;;;5071553;28;20040;-72
2022/06/02 07:40:57;;;;;;;6.72;1.20;;;;;;;;;;5074085;28;20055;-72
2022/06/02 07:43:23;;;;;;;3.47;0.90;;;;;;;;;;5075152;28;20061;-73
2022/06/02 07:46:07;;;;;;;3.97;1.08;;;;;;;;;;5067774;28;20105;-70
2022/06/02 07:48:42;;;;;;;3.63;1.13;;;;;;;;;;5069205;28;20045;-77
2022/06/02 07:51:27;;;;;;;4.18;1.05;;;;;;;;;;5065385;28;20129;-73
2022/06/02 07:53:53;;;;;;;3.53;1.00;;;;;;;;;;5056145;28;20041;-73
2022/06/02 07:56:31;;;;;;;4.32;1.27;;;;;;;;;;5054749;28;20045;-73
2022/06/02 07:59:16;;;;;;;4.80;1.00;;;;;;;;;;5058967;28;20380;-73
2022/06/02 08:02:01;;;;;;;3.75;1.00;;;;;;;;;;5071926;28;20048;-71
2022/06/02 08:04:40;;;;;;;5.47;1.20;;;;;;;;;;5060883;28;20679;-71
2022/06/02 08:07:17;;;;;;;5.90;1.42;;;;;;;;;;5067778;28;20045;-71
2022/06/02 08:10:02;;;;;;;3.35;1.17;;;;;;;;;;5069202;28;20048;-72
2022/06/02 08:12:43;;;;;;;5.28;1.50;;;;;;;;;;5072952;28;20045;-72
2022/06/02 08:15:21;;;;;;;5.68;1.35;;;;;;;;;;5066097;28;20036;-70
2022/06/02 08:17:56;;;;;;;6.85;1.50;;;;;;;;;;5072601;28;20135;-70
2022/06/02 08:21:15;;;;;;;5.47;1.50;;;;;;;;;;5064881;28;20072;-69
2022/06/02 08:23:49;;;;;;;5.03;1.50;;;;;;;;;;5032194;28;20486;-70
2022/06/02 08:26:17;;;;;;;4.35;1.40;;;;;;;;;;5032275;28;20099;-71
2022/06/02 08:28:43;;;;;;;3.70;1.25;;;;;;;;;;5022279;28;20053;-72
2022/06/02 08:31:12;;;;;;;3.58;1.20;;;;;;;;;;5029805;28;20046;-72
2022/06/02 08:33:57;;;;;;;3.92;1.40;;;;;;;;;;5031305;28;20045;-71
2022/06/02 08:36:29;;;;;;;2.90;1.20;;;;;;;;;;5031857;28;20124;-71
2022/06/02 08:38:55;;;;;;;4.60;1.50;;;;;;;;;;5031813;28;20084;-70
2022/06/02 08:41:39;;;;;;;7.18;1.60;;;;;;;;;;5031072;28;20061;-72
2022/06/02 08:44:05;;;;;;;3.50;1.40;;;;;;;;;;5024599;28;20543;-73
2022/06/02 08:46:33;;;;;;;4.07;1.30;;;;;;;;;;5028598;28;20085;-72
2022/06/02 08:49:06;;;;;;;3.53;1.10;;;;;;;;;;5023001;28;20049;-73
2022/06/02 08:51:53;;;;;;;5.85;1.48;;;;;;;;;;5018006;28;20059;-72
2022/06/02 08:54:19;;;;;;;3.97;1.40;;;;;;;;;;5033644;28;20053;-72
2022/06/02 08:56:56;;;;;;;3.65;1.50;;;;;;;;;;5066564;28;20118;-72
2022/06/02 08:59:40;;;;;;;3.47;1.42;;;;;;;;;;5072362;28;20040;-72
2022/06/02 09:02:19;;;;;;;3.88;1.40;;;;;;;;;;5067047;28;20040;-71
2022/06/02 09:04:52;;;;;;;4.50;1.50;;;;;;;;;;5073833;28;20053;-71
2022/06/02 09:07:40;;;;;;;3.85;1.20;;;;;;;;;;5073799;28;20055;-72
2022/06/02 09:10:25;;;;;;;4.32;1.70;;;;;;;;;;5054685;28;20098;-73
2022/06/02 09:12:57;;;;;;;5.07;1.88;;;;;;;;;;5066325;28;20397;-75
2022/06/02 09:15:28;;;;;;;5.43;1.75;;;;;;;;;;5067515;28;20044;-73
2022/06/02 09:17:58;;;;;;;5.00;1.60;;;;;;;;;;5072863;28;20514;-71
2022/06/02 09:20:24;;;;;;;5.53;1.60;;;;;;;;;;5064270;28;20040;-73
2022/06/02 09:22:54;;;;;;;4.57;1.60;;;;;;;;;;5073763;28;20048;-74
2022/06/02 09:25:39;;;;;;;4.97;1.40;;;;;;;;;;5057768;28;20056;-73
2022/06/02 09:28:07;;;;;;;4.78;1.70;;;;;;;;;;5060381;28;20111;-73
2022/06/02 09:30:52;;;;;;;4.07;1.48;;;;;;;;;;5053466;28;20139;-73
2022/06/02 09:33:38;;;;;;;3.83;1.40;;;;;;;;;;5055816;28;20041;-73
2022/06/02 09:36:08;;;;;;;3.47;1.30;;;;;;;;;;5073503;28;20036;-74
2022/06/02 09:38:54;;;;;;;9.43;2.33;;;;;;;;;;5072242;28;20506;-73
2022/06/02 09:41:32;;;;;;;4.32;1.40;;;;;;;;;;5072997;28;20036;-73
2022/06/02 09:44:08;;;;;;;3.72;1.38;;;;;;;;;;5068157;28;20059;-73
2022/06/02 09:47:09;;;;;;;3.78;1.55;;;;;;;;;;5068276;28;20053;-74
2022/06/02 09:49:46;;;;;;;3.67;1.35;;;;;;;;;;5050947;28;20420;-73
2022/06/02 09:52:38;;;;;;;3.90;1.50;;;;;;;;;;5053250;28;20140;-73
2022/06/02 09:55:12;;;;;;;4.80;1.33;;;;;;;;;;5068972;28;20058;-72
2022/06/02 09:57:55;;;;;;;2.88;1.10;;;;;;;;;;5069494;28;20581;-72
2022/06/02 10:00:32;;;;;;;4.43;1.40;;;;;;;;;;5070614;28;20804;-73
2022/06/02 10:02:58;;;;;;;6.93;1.30;;;;;;;;;;5069202;28;20595;-74
2022/06/02 10:05:35;;;;;;;10.65;1.92;;;;;;;;;;5070457;28;20399;-74
2022/06/02 10:08:24;;;;;;;5.13;1.42;;;;;;;;;;5045435;28;20087;-74
2022/06/02 10:11:09;;;;;;;10.15;1.58;;;;;;;;;;5055759;28;20063;-73
2022/06/02 10:13:35;;;;;;;4.80;1.42;;;;;;;;;;5070356;28;20514;-72
2022/06/02 10:16:14;;;;;;;4.07;1.58;;;;;;;;;;5066337;28;20044;-72
2022/06/02 10:18:55;;;;;;;6.47;1.40;;;;;;;;;;5062590;28;20048;-72
2022/06/02 10:21:21;;;;;;;7.63;1.27;;;;;;;;;;5051368;28;20049;-71
2022/06/02 10:24:01;;;;;;;4.85;1.40;;;;;;;;;;5053847;28;20495;-72
2022/06/02 10:26:35;;;;;;;2.85;1.30;;;;;;;;;;5053228;28;20051;-72
2022/06/02 10:29:01;;;;;;;5.57;1.63;;;;;;;;;;5052673;28;20460;-72
2022/06/02 10:31:30;;;;;;;4.95;1.40;;;;;;;;;;5063864;28;20072;-72
2022/06/02 10:34:15;;;;;;;4.22;1.38;;;;;;;;;;5070241;28;20036;-71
2022/06/02 10:36:41;;;;;;;5.47;1.40;;;;;;;;;;5069681;28;20049;-71
2022/06/02 10:39:13;;;;;;;4.45;1.55;;;;;;;;;;5072100;28;20047;-72
2022/06/02 10:41:49;;;;;;;4.20;1.40;;;;;;;;;;5072809;28;20048;-73
2022/06/02 10:44:15;;;;;;;2.65;1.23;;;;;;;;;;5073057;28;20052;-73
2022/06/02 10:46:47;;;;;;;4.15;1.30;;;;;;;;;;5068719;28;20106;-73
2022/06/02 10:49:15;;;;;;;3.30;1.20;;;;;;;;;;5070928;28;20099;-73
2022/06/02 10:51:59;;;;;;;3.28;1.13;;;;;;;;;;5062819;28;20049;-73
2022/06/02 10:54:44;;;;;;;3.72;1.27;;;;;;;;;;5062610;28;20098;-73
2022/06/02 10:57:23;;;;;;;4.57;1.40;;;;;;;;;;5071742;28;20128;-73
2022/06/02 11:00:00;;;;;;;3.70;1.30;;;;;;;;;;5066758;28;20056;-73
2022/06/02 11:02:38;;;;;;;3.40;1.20;;;;;;;;;;5068286;28;20044;-73
2022/06/02 11:05:22;;;;;;;2.97;1.30;;;;;;;;;;5066969;28;20041;-73
2022/06/02 11:07:54;;;;;;;3.45;1.30;;;;;;;;;;5063274;28;20063;-73
2022/06/02 11:10:23;;;;;;;4.25;1.45;;;;;;;;;;5062502;28;20041;-73
2022/06/02 11:12:50;;;;;;;6.35;1.65;;;;;;;;;;5057753;28;20506;-74
2022/06/02 11:15:19;;;;;;;4.97;1.45;;;;;;;;;;5076433;28;20052;-74
2022/06/02 11:18:06;;;;;;;5.70;1.40;;;;;;;;;;5063124;28;20049;-75
2022/06/02 11:20:37;;;;;;;3.55;1.40;;;;;;;;;;5056180;28;20053;-75
2022/06/02 11:23:19;;;;;;;4.22;1.40;;;;;;;;;;5056592;28;20151;-74
2022/06/02 11:25:48;;;;;;;2.75;1.23;;;;;;;;;;5055717;28;20045;-74
2022/06/02 11:28:27;;;;;;;4.07;1.70;;;;;;;;;;5059755;28;20040;-74
2022/06/02 11:31:09;;;;;;;19.98;3.28;;;;;;;;;;5063208;28;20060;-73
2022/06/02 11:33:43;;;;;;;4.63;1.63;;;;;;;;;;5064488;28;20048;-73
2022/06/02 11:36:27;;;;;;;7.90;1.60;;;;;;;;;;5074911;28;20498;-75
2022/06/02 11:39:12;;;;;;;4.85;1.40;;;;;;;;;;5075403;28;20123;-73
2022/06/02 11:41:39;;;;;;;5.28;1.40;;;;;;;;;;5063005;28;20059;-73
2022/06/02 11:44:28;;;;;;;9.63;1.75;;;;;;;;;;5067280;28;20124;-73
2022/06/02 11:47:02;;;;;;;6.32;1.40;;;;;;;;;;5051917;28;20053;-73
2022/06/02 11:49:39;;;;;;;6.03;1.38;;;;;;;;;;5074440;28;20059;-73
2022/06/02 11:52:11;;;;;;;5.65;1.23;;;;;;;;;;5068162;28;20056;-75
2022/06/02 11:54:43;;;;;;;5.07;1.40;;;;;;;;;;5073752;28;20494;-75
2022/06/02 11:57:19;;;;;;;3.78;1.30;;;;;;;;;;5061499;28;20427;-74
2022/06/02 12:00:05;;;;;;;3.22;1.10;;;;;;;;;;5060332;28;20053;-75
2022/06/02 12:02:50;;;;;;;4.40;1.40;;;;;;;;;;5074391;28;20040;-72
2022/06/02 12:05:52;;;;;;;3.50;1.35;;;;;;;;;;5073099;28;20086;-74
2022/06/02 12:08:52;;;;;;;3.47;1.10;;;;;;;;;;5052518;28;20581;-75
2022/06/02 12:11:19;;;;;;;4.25;1.20;;;;;;;;;;5052547;28;20454;-82
2022/06/02 12:13:48;;;;;;;3.53;1.10;;;;;;;;;;5048718;28;20577;-74
2022/06/02 12:16:23;;;;;;;2.50;1.00;;;;;;;;;;5047861;28;20538;-74
2022/06/02 12:18:49;;;;;;;2.92;0.88;;;;;;;;;;5046374;28;20049;-74
2022/06/02 12:21:15;;;;;;;2.60;0.90;;;;;;;;;;5051846;28;20091;-74
2022/06/02 12:23:47;;;;;;;3.80;0.98;;;;;;;;;;5035400;28;20053;-74
2022/06/02 12:26:19;;;;;;;4.60;1.00;;;;;;;;;;5046754;28;20041;-74
2022/06/02 12:29:08;;;;;;;2.60;0.90;;;;;;;;;;5024032;28;20073;-74
2022/06/02 12:31:37;;;;;;;2.92;1.00;;;;;;;;;;5041109;28;20064;-74
2022/06/02 12:34:13;;;;;;;2.67;0.95;;;;;;;;;;5050295;28;20040;-73
2022/06/02 12:36:45;;;;;;;3.58;1.15;;;;;;;;;;5046130;28;20107;-73
2022/06/02 12:39:11;;;;;;;3.20;1.08;;;;;;;;;;5048091;28;20055;-74
2022/06/02 12:41:52;;;;;;;3.22;1.23;;;;;;;;;;5051904;28;20056;-73
2022/06/02 12:44:30;;;;;;;3.92;1.10;;;;;;;;;;5073429;28;20045;-75
2022/06/02 12:47:15;;;;;;;3.38;1.15;;;;;;;;;;5054358;28;20040;-74
2022/06/02 12:49:44;;;;;;;3.50;1.25;;;;;;;;;;5054115;28;20649;-74
2022/06/02 12:52:10;;;;;;;3.17;0.98;;;;;;;;;;5066952;28;20045;-74
2022/06/02 12:54:55;;;;;;;2.78;1.15;;;;;;;;;;5072578;28;20048;-74
2022/06/02 12:57:30;;;;;;;4.40;0.95;;;;;;;;;;5056127;28;20048;-75
2022/06/02 12:59:59;;;;;;;3.65;1.00;;;;;;;;;;5064782;28;20044;-75
2022/06/02 13:02:35;;;;;;;3.92;1.10;;;;;;;;;;5062159;28;20131;-75
2022/06/02 13:05:19;;;;;;;2.72;0.93;;;;;;;;;;5064446;28;20048;-75
2022/06/02 13:08:04;;;;;;;5.60;1.05;;;;;;;;;;5063246;28;20044;-75
2022/06/02 13:10:39;;;;;;;4.45;1.25;;;;;;;;;;5068284;28;20036;-75
2022/06/02 13:13:14;;;;;;;2.75;0.93;;;;;;;;;;5071335;28;20044;-75
2022/06/02 13:15:59;;;;;;;2.55;0.90;;;;;;;;;;5073139;28;20048;-75
2022/06/02 13:18:43;;;;;;;3.25;1.27;;;;;;;;;;5067177;28;20036;-74
2022/06/02 13:21:19;;;;;;;4.13;1.10;;;;;;;;;;5067579;28;20040;-75
2022/06/02 13:24:08;;;;;;;2.15;0.90;;;;;;;;;;5057056;28;20048;-75
2022/06/02 13:26:46;;;;;;;3.05;1.10;;;;;;;;;;5035330;28;20061;-75
2022/06/02 13:29:17;;;;;;;4.88;1.02;;;;;;;;;;5072215;28;20040;-75
2022/06/02 13:32:01;;;;;;;3.30;1.10;;;;;;;;;;5073790;28;20066;-75
2022/06/02 13:34:36;;;;;;;3.13;0.98;;;;;;;;;;5073621;28;20049;-75
2022/06/02 13:37:14;;;;;;;5.10;1.23;;;;;;;;;;5059920;28;20044;-75
2022/06/02 13:39:54;;;;;;;4.07;1.00;;;;;;;;;;5068253;28;20047;-74
2022/06/02 13:42:23;;;;;;;2.40;1.00;;;;;;;;;;5072962;28;20453;-74
2022/06/02 13:44:55;;;;;;;4.40;1.17;;;;;;;;;;5075871;28;20055;-74
2022/06/02 13:47:30;;;;;;;3.20;1.30;;;;;;;;;;5067798;28;20040;-74
2022/06/02 13:50:05;;;;;;;4.13;1.38;;;;;;;;;;5067162;28;20060;-74
2022/06/02 13:52:44;;;;;;;5.00;1.52;;;;;;;;;;5063185;28;20049;-74
2022/06/02 13:58:22;;;;;;;4.25;1.40;;;;;;;;;;5064197;28;20418;-74
2022/06/02 14:00:54;;;;;;;3.10;1.38;;;;;;;;;;5071941;28;20044;-74
2022/06/02 14:03:28;;;;;;;2.55;1.30;;;;;;;;;;5060316;28;20079;-74
2022/06/02 14:06:09;;;;;;;5.90;1.70;;;;;;;;;;5052720;28;20045;-74
2022/06/02 14:08:47;;;;;;;4.05;1.40;;;;;;;;;;5052727;28;20037;-74
2022/06/02 14:11:23;;;;;;;3.85;1.30;;;;;;;;;;5052826;28;20510;-74
2022/06/02 14:13:50;;;;;;;3.92;1.30;;;;;;;;;;5060194;28;20032;-74
2022/06/02 14:16:27;;;;;;;4.00;1.60;;;;;;;;;;5090020;28;20044;-76
2022/06/02 14:19:06;;;;;;;4.22;1.33;;;;;;;;;;5070939;28;20040;-76
2022/06/02 14:21:37;;;;;;;3.10;1.13;;;;;;;;;;5070885;28;20186;-76
2022/06/02 14:24:20;;;;;;;3.03;1.20;;;;;;;;;;5069885;28;20097;-74
2022/06/02 14:26:57;;;;;;;5.35;1.75;;;;;;;;;;5063084;28;20037;-75
2022/06/02 14:29:24;;;;;;;3.83;1.30;;;;;;;;;;5072439;28;20135;-75
2022/06/02 14:31:51;;;;;;;2.60;1.05;;;;;;;;;;5057947;28;20084;-74
2022/06/02 14:34:23;;;;;;;4.47;1.30;;;;;;;;;;5073098;28;20052;-75
2022/06/02 14:37:09;;;;;;;3.08;1.10;;;;;;;;;;5071258;28;20057;-75
2022/06/02 14:39:54;;;;;;;3.05;1.02;;;;;;;;;;5071717;28;20072;-75
2022/06/02 14:45:17;;;;;;;4.78;1.20;;;;;;;;;;5070889;28;20110;-75
2022/06/02 14:47:46;;;;;;;3.88;1.23;;;;;;;;;;5071647;28;20044;-75
2022/06/02 14:50:22;;;;;;;3.20;1.13;;;;;;;;;;5062538;28;20045;-74
2022/06/02 14:53:09;;;;;;;3.25;1.20;;;;;;;;;;5060668;28;20049;-75
2022/06/02 14:55:48;;;;;;;3.13;1.15;;;;;;;;;;5058944;28;20041;-74
2022/06/02 14:58:17;;;;;;;3.85;1.13;;;;;;;;;;5058086;28;20052;-75
2022/06/02 15:00:50;;;;;;;4.78;1.17;;;;;;;;;;5054841;28;20045;-75
2022/06/02 15:03:36;;;;;;;6.70;1.52;;;;;;;;;;5054492;28;20044;-75
2022/06/02 15:06:08;;;;;;;3.83;1.27;;;;;;;;;;5052575;28;20037;-75
2022/06/02 15:08:56;;;;;;;4.55;1.13;;;;;;;;;;5064246;28;20045;-75
2022/06/02 15:11:37;;;;;;;4.18;1.40;;;;;;;;;;5065647;28;20079;-75
2022/06/02 15:14:07;;;;;;;5.32;1.27;;;;;;;;;;5055544;28;20056;-75
2022/06/02 15:16:59;;;;;;;3.83;1.13;;;;;;;;;;5070423;28;20048;-75
2022/06/02 15:19:43;;;;;;;3.25;1.25;;;;;;;;;;5058664;28;20044;-75
2022/06/02 15:22:21;;;;;;;6.05;1.40;;;;;;;;;;5052891;28;20061;-75
2022/06/02 15:24:57;;;;;;;3.65;1.23;;;;;;;;;;5070223;28;20056;-75
2022/06/02 15:27:26;;;;;;;4.82;1.00;;;;;;;;;;5070502;28;20052;-75
2022/06/02 15:29:52;;;;;;;5.15;1.58;;;;;;;;;;5051215;28;20098;-75
2022/06/02 15:32:18;;;;;;;6.90;1.58;;;;;;;;;;5053544;28;20058;-76
2022/06/02 15:35:04;;;;;;;8.10;1.88;;;;;;;;;;5054325;28;20052;-76
2022/06/02 15:37:49;;;;;;;5.57;1.35;;;;;;;;;;5054762;28;20124;-75
2022/06/02 15:40:21;;;;;;;3.35;1.48;;;;;;;;;;5067768;28;20503;-75
2022/06/02 15:42:59;;;;;;;6.28;1.55;;;;;;;;;;5069500;28;20052;-75